sensor_id;sensor_type;location;lat;lon;timestamp;P1;P2;P0
71794;PMS7003;59641;45.188;5.712;2023-03-17T00:01:41;10.50;10.25;9.00
71794;PMS7003;59641;45.188;5.712;2023-03-17T00:04:11;12.00;10.00;8.50
71794;PMS7003;59641;45.188;5.712;2023-03-17T00:06:37;12.75;11.75;9.00
71794;PMS7003;59641;45.188;5.712;2023-03-17T00:09:06;12.25;10.25;8.00
71794;PMS7003;59641;45.188;5.712;2023-03-17T00:11:38;15.50;14.25;11.00
71794;PMS7003;59641;45.188;5.712;2023-03-17T00:14:04;15.25;12.50;9.00
71794;PMS7003;59641;45.188;5.712;2023-03-17T00:16:29;13.00;12.00;10.00
71794;PMS7003;59641;45.188;5.712;2023-03-17T00:19:00;11.50;11.50;8.00
71794;PMS7003;59641;45.188;5.712;2023-03-17T00:21:27;12.25;10.25;8.50
71794;PMS7003;59641;45.188;5.712;2023-03-17T00:23:54;13.50;12.25;9.00
71794;PMS7003;59641;45.188;5.712;2023-03-17T00:26:21;13.50;11.75;8.75
71794;PMS7003;59641;45.188;5.712;2023-03-17T00:28:47;9.50;8.00;7.00
71794;PMS7003;59641;45.188;5.712;2023-03-17T00:31:14;12.00;10.50;8.00
71794;PMS7003;59641;45.188;5.712;2023-03-17T00:33:42;16.00;15.75;12.00
71794;PMS7003;59641;45.188;5.712;2023-03-17T00:36:12;13.50;13.00;10.00
71794;PMS7003;59641;45.188;5.712;2023-03-17T00:38:41;10.00;10.00;10.00
71794;PMS7003;59641;45.188;5.712;2023-03-17T00:41:08;15.50;13.50;10.50
71794;PMS7003;59641;45.188;5.712;2023-03-17T00:43:34;13.00;11.75;9.75
71794;PMS7003;59641;45.188;5.712;2023-03-17T00:45:59;13.00;12.00;9.00
71794;PMS7003;59641;45.188;5.712;2023-03-17T00:48:26;10.25;10.25;8.00
71794;PMS7003;59641;45.188;5.712;2023-03-17T00:50:54;14.67;14.00;9.00
71794;PMS7003;59641;45.188;5.712;2023-03-17T00:53:20;11.00;9.75;8.75
71794;PMS7003;59641;45.188;5.712;2023-03-17T00:55:46;12.25;11.00;8.00
71794;PMS7003;59641;45.188;5.712;2023-03-17T00:58:26;12.50;9.25;8.00
71794;PMS7003;59641;45.188;5.712;2023-03-17T01:00:54;11.25;10.75;8.75
71794;PMS7003;59641;45.188;5.712;2023-03-17T01:03:20;11.25;10.25;7.50
71794;PMS7003;59641;45.188;5.712;2023-03-17T01:05:46;11.25;11.00;8.00
71794;PMS7003;59641;45.188;5.712;2023-03-17T01:08:13;14.75;13.50;10.00
71794;PMS7003;59641;45.188;5.712;2023-03-17T01:10:38;12.50;11.00;7.75
71794;PMS7003;59641;45.188;5.712;2023-03-17T01:13:04;9.00;8.25;7.25
71794;PMS7003;59641;45.188;5.712;2023-03-17T01:15:30;6.75;6.75;5.00
71794;PMS7003;59641;45.188;5.712;2023-03-17T01:17:56;8.50;8.50;6.75
71794;PMS7003;59641;45.188;5.712;2023-03-17T01:20:27;5.50;5.50;5.00
71794;PMS7003;59641;45.188;5.712;2023-03-17T01:22:54;10.00;9.00;7.50
71794;PMS7003;59641;45.188;5.712;2023-03-17T01:25:21;9.00;7.75;6.00
71794;PMS7003;59641;45.188;5.712;2023-03-17T01:27:47;8.25;7.25;5.50
71794;PMS7003;59641;45.188;5.712;2023-03-17T01:32:44;7.00;6.50;5.00
71794;PMS7003;59641;45.188;5.712;2023-03-17T01:35:10;9.50;7.50;4.50
71794;PMS7003;59641;45.188;5.712;2023-03-17T01:37:36;8.00;8.00;6.50
71794;PMS7003;59641;45.188;5.712;2023-03-17T01:40:02;6.75;5.50;5.00
71794;PMS7003;59641;45.188;5.712;2023-03-17T01:42:29;8.50;8.50;6.25
71794;PMS7003;59641;45.188;5.712;2023-03-17T01:45:04;10.00;10.00;7.25
71794;PMS7003;59641;45.188;5.712;2023-03-17T01:47:31;8.00;8.00;6.25
71794;PMS7003;59641;45.188;5.712;2023-03-17T01:50:02;6.50;6.50;5.50
71794;PMS7003;59641;45.188;5.712;2023-03-17T01:52:31;5.50;5.50;4.50
71794;PMS7003;59641;45.188;5.712;2023-03-17T01:59:57;6.75;5.00;4.25
71794;PMS7003;59641;45.188;5.712;2023-03-17T02:02:30;3.00;3.00;1.00
71794;PMS7003;59641;45.188;5.712;2023-03-17T02:05:00;6.75;4.00;3.00
71794;PMS7003;59641;45.188;5.712;2023-03-17T02:07:27;2.25;2.00;2.00
71794;PMS7003;59641;45.188;5.712;2023-03-17T02:09:54;4.50;4.50;3.00
71794;PMS7003;59641;45.188;5.712;2023-03-17T02:12:22;5.00;5.00;4.00
71794;PMS7003;59641;45.188;5.712;2023-03-17T02:14:49;5.50;5.00;4.00
71794;PMS7003;59641;45.188;5.712;2023-03-17T02:17:16;5.50;5.50;4.00
71794;PMS7003;59641;45.188;5.712;2023-03-17T02:19:43;4.50;4.25;3.00
71794;PMS7003;59641;45.188;5.712;2023-03-17T02:22:08;3.50;3.25;3.00
71794;PMS7003;59641;45.188;5.712;2023-03-17T02:27:09;6.00;4.25;3.00
71794;PMS7003;59641;45.188;5.712;2023-03-17T02:29:39;4.75;4.75;3.00
71794;PMS7003;59641;45.188;5.712;2023-03-17T02:32:05;6.25;5.00;3.00
71794;PMS7003;59641;45.188;5.712;2023-03-17T02:34:32;7.00;4.00;2.50
71794;PMS7003;59641;45.188;5.712;2023-03-17T02:36:58;5.75;5.50;3.50
71794;PMS7003;59641;45.188;5.712;2023-03-17T02:39:23;3.00;3.00;3.00
71794;PMS7003;59641;45.188;5.712;2023-03-17T02:41:49;4.50;3.00;2.50
71794;PMS7003;59641;45.188;5.712;2023-03-17T02:44:15;4.00;3.00;2.00
71794;PMS7003;59641;45.188;5.712;2023-03-17T02:46:41;4.00;2.40;2.00
71794;PMS7003;59641;45.188;5.712;2023-03-17T02:49:06;4.00;2.75;2.50
71794;PMS7003;59641;45.188;5.712;2023-03-17T02:51:32;1.00;1.00;1.00
71794;PMS7003;59641;45.188;5.712;2023-03-17T02:53:58;2.50;2.50;2.00
71794;PMS7003;59641;45.188;5.712;2023-03-17T02:56:23;2.00;2.00;2.00
71794;PMS7003;59641;45.188;5.712;2023-03-17T02:58:49;4.75;3.25;2.25
71794;PMS7003;59641;45.188;5.712;2023-03-17T03:01:14;4.00;2.75;2.75
71794;PMS7003;59641;45.188;5.712;2023-03-17T03:03:40;3.50;3.50;3.00
71794;PMS7003;59641;45.188;5.712;2023-03-17T03:06:06;1.75;1.75;1.25
71794;PMS7003;59641;45.188;5.712;2023-03-17T03:08:31;3.00;2.50;2.00
71794;PMS7003;59641;45.188;5.712;2023-03-17T03:10:56;4.50;3.00;1.75
71794;PMS7003;59641;45.188;5.712;2023-03-17T03:13:24;5.00;3.75;2.00
71794;PMS7003;59641;45.188;5.712;2023-03-17T03:15:50;3.00;2.00;1.00
71794;PMS7003;59641;45.188;5.712;2023-03-17T03:18:15;3.00;2.00;1.50
71794;PMS7003;59641;45.188;5.712;2023-03-17T03:20:41;3.75;3.00;1.75
71794;PMS7003;59641;45.188;5.712;2023-03-17T03:23:08;2.00;2.00;1.75
71794;PMS7003;59641;45.188;5.712;2023-03-17T03:25:35;3.00;1.60;1.60
71794;PMS7003;59641;45.188;5.712;2023-03-17T03:28:02;2.25;2.25;1.50
71794;PMS7003;59641;45.188;5.712;2023-03-17T03:30:28;3.25;2.50;1.75
71794;PMS7003;59641;45.188;5.712;2023-03-17T03:32:54;3.75;3.25;1.75
71794;PMS7003;59641;45.188;5.712;2023-03-17T03:35:19;4.50;3.25;2.00
71794;PMS7003;59641;45.188;5.712;2023-03-17T03:37:44;2.00;1.75;1.00
71794;PMS7003;59641;45.188;5.712;2023-03-17T03:40:10;2.00;1.50;1.00
71794;PMS7003;59641;45.188;5.712;2023-03-17T03:42:36;5.00;2.00;1.00
71794;PMS7003;59641;45.188;5.712;2023-03-17T03:45:02;1.50;1.00;1.00
71794;PMS7003;59641;45.188;5.712;2023-03-17T03:47:28;3.00;2.00;1.00
71794;PMS7003;59641;45.188;5.712;2023-03-17T03:49:53;2.25;1.00;1.00
71794;PMS7003;59641;45.188;5.712;2023-03-17T03:52:18;2.50;1.50;1.00
71794;PMS7003;59641;45.188;5.712;2023-03-17T03:54:45;1.80;1.80;1.20
71794;PMS7003;59641;45.188;5.712;2023-03-17T03:57:10;1.00;1.00;0.00
71794;PMS7003;59641;45.188;5.712;2023-03-17T03:59:36;2.00;2.00;1.00
71794;PMS7003;59641;45.188;5.712;2023-03-17T04:02:01;1.75;1.75;1.75
71794;PMS7003;59641;45.188;5.712;2023-03-17T04:04:27;3.00;1.00;1.00
71794;PMS7003;59641;45.188;5.712;2023-03-17T04:06:52;4.75;2.00;2.00
71794;PMS7003;59641;45.188;5.712;2023-03-17T04:09:17;1.75;1.25;1.00
71794;PMS7003;59641;45.188;5.712;2023-03-17T04:11:43;2.00;2.00;1.00
71794;PMS7003;59641;45.188;5.712;2023-03-17T04:14:08;3.50;2.00;1.00
71794;PMS7003;59641;45.188;5.712;2023-03-17T04:16:34;3.00;2.00;2.00
71794;PMS7003;59641;45.188;5.712;2023-03-17T04:18:59;2.00;1.75;1.75
71794;PMS7003;59641;45.188;5.712;2023-03-17T04:21:24;3.00;2.00;1.00
71794;PMS7003;59641;45.188;5.712;2023-03-17T04:23:50;2.75;2.75;2.00
71794;PMS7003;59641;45.188;5.712;2023-03-17T04:26:15;2.25;2.25;2.00
71794;PMS7003;59641;45.188;5.712;2023-03-17T04:28:42;5.00;2.50;2.00
71794;PMS7003;59641;45.188;5.712;2023-03-17T04:31:08;1.50;1.50;1.00
71794;PMS7003;59641;45.188;5.712;2023-03-17T04:33:36;1.00;1.00;1.00
71794;PMS7003;59641;45.188;5.712;2023-03-17T04:36:01;1.00;0.00;0.00
71794;PMS7003;59641;45.188;5.712;2023-03-17T04:38:28;2.00;2.00;1.00
71794;PMS7003;59641;45.188;5.712;2023-03-17T04:40:53;5.50;4.50;3.00
71794;PMS7003;59641;45.188;5.712;2023-03-17T04:43:18;4.25;3.00;2.00
71794;PMS7003;59641;45.188;5.712;2023-03-17T04:45:44;3.75;2.00;2.00
71794;PMS7003;59641;45.188;5.712;2023-03-17T04:48:09;4.50;3.00;1.75
71794;PMS7003;59641;45.188;5.712;2023-03-17T04:50:35;3.00;2.00;1.00
71794;PMS7003;59641;45.188;5.712;2023-03-17T04:53:00;2.00;2.00;1.25
71794;PMS7003;59641;45.188;5.712;2023-03-17T04:55:26;3.50;2.00;2.00
71794;PMS7003;59641;45.188;5.712;2023-03-17T04:57:51;3.00;3.00;2.00
71794;PMS7003;59641;45.188;5.712;2023-03-17T05:00:17;3.00;2.50;1.25
71794;PMS7003;59641;45.188;5.712;2023-03-17T05:02:42;3.00;2.00;2.00
71794;PMS7003;59641;45.188;5.712;2023-03-17T05:05:08;3.00;0.25;0.25
71794;PMS7003;59641;45.188;5.712;2023-03-17T05:07:33;1.00;1.00;1.00
71794;PMS7003;59641;45.188;5.712;2023-03-17T05:09:59;3.25;1.50;0.50
71794;PMS7003;59641;45.188;5.712;2023-03-17T05:12:26;3.00;3.00;1.80
71794;PMS7003;59641;45.188;5.712;2023-03-17T05:14:51;3.75;1.75;1.75
71794;PMS7003;59641;45.188;5.712;2023-03-17T05:17:17;2.00;2.00;1.00
71794;PMS7003;59641;45.188;5.712;2023-03-17T05:19:42;3.25;2.00;1.00
71794;PMS7003;59641;45.188;5.712;2023-03-17T05:22:07;3.25;2.50;1.50
71794;PMS7003;59641;45.188;5.712;2023-03-17T05:24:33;3.00;1.75;1.25
71794;PMS7003;59641;45.188;5.712;2023-03-17T05:26:58;4.25;2.75;1.00
71794;PMS7003;59641;45.188;5.712;2023-03-17T05:29:24;6.00;3.75;2.00
71794;PMS7003;59641;45.188;5.712;2023-03-17T05:31:49;2.50;1.75;1.25
71794;PMS7003;59641;45.188;5.712;2023-03-17T05:34:14;5.00;3.00;1.25
71794;PMS7003;59641;45.188;5.712;2023-03-17T05:36:41;4.00;2.50;2.00
71794;PMS7003;59641;45.188;5.712;2023-03-17T05:39:07;5.00;3.50;3.00
71794;PMS7003;59641;45.188;5.712;2023-03-17T05:41:33;9.00;5.00;4.00
71794;PMS7003;59641;45.188;5.712;2023-03-17T05:43:58;4.00;4.00;3.00
71794;PMS7003;59641;45.188;5.712;2023-03-17T05:46:24;2.50;2.00;2.00
71794;PMS7003;59641;45.188;5.712;2023-03-17T05:48:50;2.75;2.75;2.50
71794;PMS7003;59641;45.188;5.712;2023-03-17T05:51:16;4.25;4.00;3.75
71794;PMS7003;59641;45.188;5.712;2023-03-17T05:53:41;2.25;1.00;1.00
71794;PMS7003;59641;45.188;5.712;2023-03-17T05:56:07;4.00;4.00;2.00
71794;PMS7003;59641;45.188;5.712;2023-03-17T05:58:33;6.00;5.25;4.25
71794;PMS7003;59641;45.188;5.712;2023-03-17T06:00:59;4.50;3.00;3.00
71794;PMS7003;59641;45.188;5.712;2023-03-17T06:03:25;6.75;4.50;3.00
71794;PMS7003;59641;45.188;5.712;2023-03-17T06:05:50;2.00;2.00;2.00
71794;PMS7003;59641;45.188;5.712;2023-03-17T06:08:15;3.00;3.00;2.75
71794;PMS7003;59641;45.188;5.712;2023-03-17T06:10:41;4.00;4.00;3.00
71794;PMS7003;59641;45.188;5.712;2023-03-17T06:13:07;1.50;1.50;1.00
71794;PMS7003;59641;45.188;5.712;2023-03-17T06:15:33;3.00;3.00;2.25
71794;PMS7003;59641;45.188;5.712;2023-03-17T06:18:00;4.50;3.50;2.00
71794;PMS7003;59641;45.188;5.712;2023-03-17T06:20:26;3.00;3.00;2.00
71794;PMS7003;59641;45.188;5.712;2023-03-17T06:22:52;3.00;3.00;2.00
71794;PMS7003;59641;45.188;5.712;2023-03-17T06:25:17;5.50;3.75;2.00
71794;PMS7003;59641;45.188;5.712;2023-03-17T06:27:43;3.00;2.50;1.50
71794;PMS7003;59641;45.188;5.712;2023-03-17T06:30:08;3.00;3.00;1.75
71794;PMS7003;59641;45.188;5.712;2023-03-17T06:32:35;2.25;2.00;2.00
71794;PMS7003;59641;45.188;5.712;2023-03-17T06:35:02;2.75;2.00;2.00
71794;PMS7003;59641;45.188;5.712;2023-03-17T06:37:29;4.00;3.25;2.00
71794;PMS7003;59641;45.188;5.712;2023-03-17T06:39:54;2.00;2.00;2.00
71794;PMS7003;59641;45.188;5.712;2023-03-17T06:42:20;3.75;3.00;2.00
71794;PMS7003;59641;45.188;5.712;2023-03-17T06:44:46;5.00;5.00;3.00
71794;PMS7003;59641;45.188;5.712;2023-03-17T06:47:16;4.75;3.50;2.50
71794;PMS7003;59641;45.188;5.712;2023-03-17T06:49:43;3.00;3.00;2.00
71794;PMS7003;59641;45.188;5.712;2023-03-17T06:52:09;3.00;2.00;1.00
71794;PMS7003;59641;45.188;5.712;2023-03-17T06:54:35;4.75;3.00;2.25
71794;PMS7003;59641;45.188;5.712;2023-03-17T06:57:00;5.25;4.00;2.00
71794;PMS7003;59641;45.188;5.712;2023-03-17T06:59:26;3.75;2.25;2.00
71794;PMS7003;59641;45.188;5.712;2023-03-17T07:01:51;3.75;2.00;1.00
71794;PMS7003;59641;45.188;5.712;2023-03-17T07:04:17;4.00;4.00;3.00
71794;PMS7003;59641;45.188;5.712;2023-03-17T07:06:43;3.75;3.00;3.00
71794;PMS7003;59641;45.188;5.712;2023-03-17T07:09:10;4.00;4.00;3.00
71794;PMS7003;59641;45.188;5.712;2023-03-17T07:11:36;2.75;2.75;2.00
71794;PMS7003;59641;45.188;5.712;2023-03-17T07:14:02;2.00;2.00;2.00
71794;PMS7003;59641;45.188;5.712;2023-03-17T07:16:28;4.00;4.00;2.00
71794;PMS7003;59641;45.188;5.712;2023-03-17T07:18:53;2.75;2.50;2.00
71794;PMS7003;59641;45.188;5.712;2023-03-17T07:21:19;3.00;3.00;2.00
71794;PMS7003;59641;45.188;5.712;2023-03-17T07:23:45;2.00;2.00;2.00
71794;PMS7003;59641;45.188;5.712;2023-03-17T07:26:10;2.75;2.75;2.00
71794;PMS7003;59641;45.188;5.712;2023-03-17T07:28:35;2.25;1.50;1.00
71794;PMS7003;59641;45.188;5.712;2023-03-17T07:31:04;3.00;3.00;2.00
71794;PMS7003;59641;45.188;5.712;2023-03-17T07:33:32;3.75;2.25;1.00
71794;PMS7003;59641;45.188;5.712;2023-03-17T07:35:58;2.75;2.75;2.00
71794;PMS7003;59641;45.188;5.712;2023-03-17T07:38:23;3.00;3.00;2.00
71794;PMS7003;59641;45.188;5.712;2023-03-17T07:40:48;3.25;3.00;2.00
71794;PMS7003;59641;45.188;5.712;2023-03-17T07:43:14;5.50;4.00;2.50
71794;PMS7003;59641;45.188;5.712;2023-03-17T07:45:41;3.25;3.00;2.00
71794;PMS7003;59641;45.188;5.712;2023-03-17T07:48:07;5.50;4.00;2.25
71794;PMS7003;59641;45.188;5.712;2023-03-17T07:50:34;3.00;3.00;2.00
71794;PMS7003;59641;45.188;5.712;2023-03-17T07:53:00;3.00;2.75;2.00
71794;PMS7003;59641;45.188;5.712;2023-03-17T07:55:27;3.00;3.00;2.00
71794;PMS7003;59641;45.188;5.712;2023-03-17T07:57:52;4.00;3.75;2.00
71794;PMS7003;59641;45.188;5.712;2023-03-17T08:00:18;3.00;3.00;2.25
71794;PMS7003;59641;45.188;5.712;2023-03-17T08:02:44;5.00;3.00;3.00
71794;PMS7003;59641;45.188;5.712;2023-03-17T08:05:10;1.75;1.75;1.00
71794;PMS7003;59641;45.188;5.712;2023-03-17T08:07:36;3.00;3.00;2.00
71794;PMS7003;59641;45.188;5.712;2023-03-17T08:10:02;3.25;2.75;2.00
71794;PMS7003;59641;45.188;5.712;2023-03-17T08:12:29;4.25;3.00;2.00
71794;PMS7003;59641;45.188;5.712;2023-03-17T08:14:55;4.50;3.25;2.25
71794;PMS7003;59641;45.188;5.712;2023-03-17T08:17:20;5.25;5.25;4.00
71794;PMS7003;59641;45.188;5.712;2023-03-17T08:19:50;4.75;4.25;3.25
71794;PMS7003;59641;45.188;5.712;2023-03-17T08:22:16;5.00;5.00;3.00
71794;PMS7003;59641;45.188;5.712;2023-03-17T08:24:42;7.00;5.00;4.75
71794;PMS7003;59641;45.188;5.712;2023-03-17T08:27:08;3.00;3.00;3.00
71794;PMS7003;59641;45.188;5.712;2023-03-17T08:29:33;4.50;4.00;3.00
71794;PMS7003;59641;45.188;5.712;2023-03-17T08:31:58;3.00;3.00;2.00
71794;PMS7003;59641;45.188;5.712;2023-03-17T08:34:24;2.00;2.00;2.00
71794;PMS7003;59641;45.188;5.712;2023-03-17T08:36:50;2.25;2.25;2.00
71794;PMS7003;59641;45.188;5.712;2023-03-17T08:39:15;3.50;3.50;3.00
71794;PMS7003;59641;45.188;5.712;2023-03-17T08:41:41;5.00;2.00;1.75
71794;PMS7003;59641;45.188;5.712;2023-03-17T08:44:07;4.00;3.00;2.00
71794;PMS7003;59641;45.188;5.712;2023-03-17T08:46:33;1.75;1.00;0.00
71794;PMS7003;59641;45.188;5.712;2023-03-17T08:49:00;3.25;2.00;2.00
71794;PMS7003;59641;45.188;5.712;2023-03-17T08:51:27;2.50;2.50;1.75
71794;PMS7003;59641;45.188;5.712;2023-03-17T08:53:55;6.25;3.00;1.75
71794;PMS7003;59641;45.188;5.712;2023-03-17T08:56:21;3.40;3.40;2.00
71794;PMS7003;59641;45.188;5.712;2023-03-17T08:58:47;3.00;2.00;2.00
71794;PMS7003;59641;45.188;5.712;2023-03-17T09:01:15;2.00;2.00;1.00
71794;PMS7003;59641;45.188;5.712;2023-03-17T09:03:41;4.00;2.00;1.25
71794;PMS7003;59641;45.188;5.712;2023-03-17T09:06:08;1.60;1.00;1.00
71794;PMS7003;59641;45.188;5.712;2023-03-17T09:08:36;3.00;3.00;2.00
71794;PMS7003;59641;45.188;5.712;2023-03-17T09:11:04;2.00;2.00;1.25
71794;PMS7003;59641;45.188;5.712;2023-03-17T09:13:30;1.25;1.25;1.00
71794;PMS7003;59641;45.188;5.712;2023-03-17T09:15:57;1.75;1.25;1.00
71794;PMS7003;59641;45.188;5.712;2023-03-17T09:18:22;3.00;3.00;2.00
71794;PMS7003;59641;45.188;5.712;2023-03-17T09:20:47;1.25;1.25;1.00
71794;PMS7003;59641;45.188;5.712;2023-03-17T09:23:13;1.75;1.00;1.00
71794;PMS7003;59641;45.188;5.712;2023-03-17T09:25:38;1.00;0.00;0.00
71794;PMS7003;59641;45.188;5.712;2023-03-17T09:28:07;1.20;1.20;0.80
71794;PMS7003;59641;45.188;5.712;2023-03-17T09:30:36;2.50;1.50;0.50
71794;PMS7003;59641;45.188;5.712;2023-03-17T09:33:03;1.50;1.50;1.50
71794;PMS7003;59641;45.188;5.712;2023-03-17T09:35:29;2.00;2.00;1.50
71794;PMS7003;59641;45.188;5.712;2023-03-17T09:37:56;2.75;1.50;0.50
71794;PMS7003;59641;45.188;5.712;2023-03-17T09:40:23;0.50;0.50;0.50
71794;PMS7003;59641;45.188;5.712;2023-03-17T09:43:27;0.75;0.75;0.50
71794;PMS7003;59641;45.188;5.712;2023-03-17T09:49:14;0.60;0.60;0.60
71794;PMS7003;59641;45.188;5.712;2023-03-17T09:52:12;1.20;1.20;0.20
71794;PMS7003;59641;45.188;5.712;2023-03-17T09:54:39;1.40;1.20;0.00
71794;PMS7003;59641;45.188;5.712;2023-03-17T09:57:15;0.80;0.00;0.00
71794;PMS7003;59641;45.188;5.712;2023-03-17T09:59:51;0.00;0.00;0.00
71794;PMS7003;59641;45.188;5.712;2023-03-17T10:02:29;0.75;0.75;0.75
71794;PMS7003;59641;45.188;5.712;2023-03-17T10:04:56;1.00;1.00;0.75
71794;PMS7003;59641;45.188;5.712;2023-03-17T10:07:24;0.40;0.20;0.00
71794;PMS7003;59641;45.188;5.712;2023-03-17T10:10:01;0.80;0.80;0.60
71794;PMS7003;59641;45.188;5.712;2023-03-17T10:12:52;2.20;1.40;0.80
71794;PMS7003;59641;45.188;5.712;2023-03-17T10:15:34;1.75;1.75;1.00
71794;PMS7003;59641;45.188;5.712;2023-03-17T10:18:09;1.00;1.00;0.80
71794;PMS7003;59641;45.188;5.712;2023-03-17T10:20:41;1.40;1.40;1.20
71794;PMS7003;59641;45.188;5.712;2023-03-17T10:23:14;3.00;1.00;1.00
71794;PMS7003;59641;45.188;5.712;2023-03-17T10:25:43;1.00;0.50;0.00
71794;PMS7003;59641;45.188;5.712;2023-03-17T10:30:40;0.80;0.80;0.20
71794;PMS7003;59641;45.188;5.712;2023-03-17T10:33:07;1.00;1.00;1.00
71794;PMS7003;59641;45.188;5.712;2023-03-17T10:35:32;0.50;0.50;0.00
71794;PMS7003;59641;45.188;5.712;2023-03-17T10:38:00;1.00;0.80;0.80
71794;PMS7003;59641;45.188;5.712;2023-03-17T10:40:37;1.60;1.60;0.80
71794;PMS7003;59641;45.188;5.712;2023-03-17T10:43:03;1.75;0.25;0.25
71794;PMS7003;59641;45.188;5.712;2023-03-17T10:45:33;2.00;0.25;0.25
71794;PMS7003;59641;45.188;5.712;2023-03-17T10:48:00;0.00;0.00;0.00
71794;PMS7003;59641;45.188;5.712;2023-03-17T10:50:32;0.60;0.60;0.20
71794;PMS7003;59641;45.188;5.712;2023-03-17T10:53:04;2.25;0.25;0.25
71794;PMS7003;59641;45.188;5.712;2023-03-17T10:55:46;0.00;0.00;0.00
71794;PMS7003;59641;45.188;5.712;2023-03-17T11:00:57;1.20;1.20;0.20
71794;PMS7003;59641;45.188;5.712;2023-03-17T11:03:30;1.60;1.60;0.00
71794;PMS7003;59641;45.188;5.712;2023-03-17T11:06:04;0.00;0.00;0.00
71794;PMS7003;59641;45.188;5.712;2023-03-17T11:08:33;1.40;1.40;1.00
71794;PMS7003;59641;45.188;5.712;2023-03-17T11:11:23;0.60;0.60;0.00
71794;PMS7003;59641;45.188;5.712;2023-03-17T11:16:56;1.00;1.00;0.00
71794;PMS7003;59641;45.188;5.712;2023-03-17T11:19:29;0.40;0.40;0.00
71794;PMS7003;59641;45.188;5.712;2023-03-17T11:22:16;0.00;0.00;0.00
71794;PMS7003;59641;45.188;5.712;2023-03-17T11:38:08;0.25;0.25;0.25
71794;PMS7003;59641;45.188;5.712;2023-03-17T11:40:59;1.60;0.00;0.00
71794;PMS7003;59641;45.188;5.712;2023-03-17T11:43:34;0.60;0.60;0.00
71794;PMS7003;59641;45.188;5.712;2023-03-17T11:46:03;1.40;1.40;0.00
71794;PMS7003;59641;45.188;5.712;2023-03-17T11:56:55;0.00;0.00;0.00
71794;PMS7003;59641;45.188;5.712;2023-03-17T12:01:55;1.20;1.20;0.80
71794;PMS7003;59641;45.188;5.712;2023-03-17T12:04:26;2.00;1.80;0.80
71794;PMS7003;59641;45.188;5.712;2023-03-17T12:07:20;2.00;2.00;0.40
71794;PMS7003;59641;45.188;5.712;2023-03-17T12:09:49;2.60;1.40;0.00
71794;PMS7003;59641;45.188;5.712;2023-03-17T12:12:38;1.00;1.00;0.00
71794;PMS7003;59641;45.188;5.712;2023-03-17T12:15:24;1.40;0.00;0.00
71794;PMS7003;59641;45.188;5.712;2023-03-17T12:18:04;0.60;0.00;0.00
71794;PMS7003;59641;45.188;5.712;2023-03-17T12:26:02;0.40;0.00;0.00
71794;PMS7003;59641;45.188;5.712;2023-03-17T12:28:37;0.80;0.80;0.00
71794;PMS7003;59641;45.188;5.712;2023-03-17T12:31:24;1.80;1.60;1.00
71794;PMS7003;59641;45.188;5.712;2023-03-17T12:33:58;0.60;0.00;0.00
71794;PMS7003;59641;45.188;5.712;2023-03-17T12:36:31;0.80;0.80;0.80
71794;PMS7003;59641;45.188;5.712;2023-03-17T12:39:04;1.40;1.40;0.60
71794;PMS7003;59641;45.188;5.712;2023-03-17T12:47:20;1.00;1.00;0.00
71794;PMS7003;59641;45.188;5.712;2023-03-17T12:49:55;1.80;1.60;0.80
71794;PMS7003;59641;45.188;5.712;2023-03-17T12:54:59;2.00;0.00;0.00
71794;PMS7003;59641;45.188;5.712;2023-03-17T12:57:28;1.00;0.60;0.00
71794;PMS7003;59641;45.188;5.712;2023-03-17T12:59:57;1.80;1.80;1.00
71794;PMS7003;59641;45.188;5.712;2023-03-17T13:03:05;1.20;1.20;0.00
71794;PMS7003;59641;45.188;5.712;2023-03-17T13:05:38;0.00;0.00;0.00
71794;PMS7003;59641;45.188;5.712;2023-03-17T13:08:20;0.40;0.40;0.20
71794;PMS7003;59641;45.188;5.712;2023-03-17T13:10:49;0.40;0.40;0.40
71794;PMS7003;59641;45.188;5.712;2023-03-17T13:20:41;0.00;0.00;0.00
71794;PMS7003;59641;45.188;5.712;2023-03-17T13:35:36;0.00;0.00;0.00
71794;PMS7003;59641;45.188;5.712;2023-03-17T13:40:48;0.80;0.80;0.00
71794;PMS7003;59641;45.188;5.712;2023-03-17T13:54:21;0.00;0.00;0.00
71794;PMS7003;59641;45.188;5.712;2023-03-17T13:56:57;1.40;1.00;0.00
71794;PMS7003;59641;45.188;5.712;2023-03-17T14:02:19;1.00;1.00;0.80
71794;PMS7003;59641;45.188;5.712;2023-03-17T14:04:55;0.00;0.00;0.00
71794;PMS7003;59641;45.188;5.712;2023-03-17T14:10:22;0.40;0.40;0.00
71794;PMS7003;59641;45.188;5.712;2023-03-17T14:15:48;0.40;0.40;0.20
71794;PMS7003;59641;45.188;5.712;2023-03-17T14:18:31;0.00;0.00;0.00
71794;PMS7003;59641;45.188;5.712;2023-03-17T14:20:59;0.40;0.20;0.00
71794;PMS7003;59641;45.188;5.712;2023-03-17T14:23:27;0.40;0.40;0.00
71794;PMS7003;59641;45.188;5.712;2023-03-17T14:25:54;3.00;1.20;0.00
71794;PMS7003;59641;45.188;5.712;2023-03-17T14:28:27;1.00;1.00;1.00
71794;PMS7003;59641;45.188;5.712;2023-03-17T14:30:58;0.00;0.00;0.00
71794;PMS7003;59641;45.188;5.712;2023-03-17T14:33:38;0.80;0.00;0.00
71794;PMS7003;59641;45.188;5.712;2023-03-17T14:36:06;0.00;0.00;0.00
71794;PMS7003;59641;45.188;5.712;2023-03-17T14:38:35;2.00;2.00;0.60
71794;PMS7003;59641;45.188;5.712;2023-03-17T14:43:30;1.40;1.40;0.20
71794;PMS7003;59641;45.188;5.712;2023-03-17T14:45:58;0.00;0.00;0.00
71794;PMS7003;59641;45.188;5.712;2023-03-17T14:48:35;0.60;0.00;0.00
71794;PMS7003;59641;45.188;5.712;2023-03-17T14:51:07;1.40;1.00;0.00
71794;PMS7003;59641;45.188;5.712;2023-03-17T14:53:42;1.00;1.00;0.00
71794;PMS7003;59641;45.188;5.712;2023-03-17T14:56:10;1.20;1.20;0.40
71794;PMS7003;59641;45.188;5.712;2023-03-17T14:58:40;2.20;1.20;0.00
71794;PMS7003;59641;45.188;5.712;2023-03-17T15:01:13;0.00;0.00;0.00
71794;PMS7003;59641;45.188;5.712;2023-03-17T15:03:50;1.80;1.80;1.00
71794;PMS7003;59641;45.188;5.712;2023-03-17T15:06:29;0.40;0.40;0.00
71794;PMS7003;59641;45.188;5.712;2023-03-17T15:08:58;1.00;1.00;0.00
71794;PMS7003;59641;45.188;5.712;2023-03-17T15:11:35;1.00;0.80;0.00
71794;PMS7003;59641;45.188;5.712;2023-03-17T15:14:04;0.00;0.00;0.00
71794;PMS7003;59641;45.188;5.712;2023-03-17T15:16:37;0.00;0.00;0.00
71794;PMS7003;59641;45.188;5.712;2023-03-17T15:21:42;1.00;1.00;0.00
71794;PMS7003;59641;45.188;5.712;2023-03-17T15:24:19;0.00;0.00;0.00
71794;PMS7003;59641;45.188;5.712;2023-03-17T15:27:15;0.00;0.00;0.00
71794;PMS7003;59641;45.188;5.712;2023-03-17T15:29:42;2.40;1.80;1.00
71794;PMS7003;59641;45.188;5.712;2023-03-17T15:32:14;1.25;1.25;1.00
71794;PMS7003;59641;45.188;5.712;2023-03-17T15:34:43;2.40;1.20;0.40
71794;PMS7003;59641;45.188;5.712;2023-03-17T15:37:17;1.60;1.00;1.00
71794;PMS7003;59641;45.188;5.712;2023-03-17T15:39:54;0.60;0.60;0.20
71794;PMS7003;59641;45.188;5.712;2023-03-17T15:42:21;1.60;1.00;0.80
71794;PMS7003;59641;45.188;5.712;2023-03-17T15:44:48;3.00;2.00;1.00
71794;PMS7003;59641;45.188;5.712;2023-03-17T15:47:15;0.80;0.80;0.20
71794;PMS7003;59641;45.188;5.712;2023-03-17T15:49:43;1.40;1.40;0.60
71794;PMS7003;59641;45.188;5.712;2023-03-17T15:52:13;1.00;1.00;0.20
71794;PMS7003;59641;45.188;5.712;2023-03-17T15:54:48;1.00;1.00;0.40
71794;PMS7003;59641;45.188;5.712;2023-03-17T15:57:14;0.25;0.25;0.00
71794;PMS7003;59641;45.188;5.712;2023-03-17T15:59:39;2.00;1.00;1.00
71794;PMS7003;59641;45.188;5.712;2023-03-17T16:02:38;1.00;1.00;0.25
71794;PMS7003;59641;45.188;5.712;2023-03-17T16:05:01;0.00;0.00;0.00
71794;PMS7003;59641;45.188;5.712;2023-03-17T16:07:38;3.40;1.40;1.00
71794;PMS7003;59641;45.188;5.712;2023-03-17T16:10:13;0.00;0.00;0.00
71794;PMS7003;59641;45.188;5.712;2023-03-17T16:12:47;1.00;1.00;1.00
71794;PMS7003;59641;45.188;5.712;2023-03-17T16:15:14;0.40;0.40;0.00
71794;PMS7003;59641;45.188;5.712;2023-03-17T16:17:40;0.40;0.40;0.00